sensor_id;sensor_type;location;lat;lon;timestamp;P1;durP1;ratioP1;P2;durP2;ratioP2
11245;SDS011;59870;50.106;8.580;2022-08-21T00:00:59;7.80;;;5.23;;
11245;SDS011;59870;50.106;8.580;2022-08-21T00:03:33;5.63;;;5.13;;
11245;SDS011;59870;50.106;8.580;2022-08-21T00:06:01;6.17;;;5.67;;
11245;SDS011;59870;50.106;8.580;2022-08-21T00:08:29;6.13;;;5.53;;
11245;SDS011;59870;50.106;8.580;2022-08-21T00:10:56;7.43;;;5.67;;
11245;SDS011;59870;50.106;8.580;2022-08-21T00:13:24;6.23;;;5.70;;
11245;SDS011;59870;50.106;8.580;2022-08-21T00:15:52;7.40;;;5.43;;
11245;SDS011;59870;50.106;8.580;2022-08-21T00:18:20;7.03;;;5.70;;
11245;SDS011;59870;50.106;8.580;2022-08-21T00:20:49;6.00;;;5.50;;
11245;SDS011;59870;50.106;8.580;2022-08-21T00:23:16;12.43;;;6.33;;
11245;SDS011;59870;50.106;8.580;2022-08-21T00:25:44;7.00;;;6.10;;
11245;SDS011;59870;50.106;8.580;2022-08-21T00:28:13;8.00;;;5.43;;
11245;SDS011;59870;50.106;8.580;2022-08-21T00:30:42;5.60;;;5.20;;
11245;SDS011;59870;50.106;8.580;2022-08-21T00:33:10;6.27;;;5.77;;
11245;SDS011;59870;50.106;8.580;2022-08-21T00:35:39;6.40;;;5.77;;
11245;SDS011;59870;50.106;8.580;2022-08-21T00:38:08;6.37;;;5.77;;
11245;SDS011;59870;50.106;8.580;2022-08-21T00:40:47;6.47;;;5.87;;
11245;SDS011;59870;50.106;8.580;2022-08-21T00:43:19;6.90;;;5.13;;
11245;SDS011;59870;50.106;8.580;2022-08-21T00:45:50;7.10;;;6.33;;
11245;SDS011;59870;50.106;8.580;2022-08-21T00:48:18;6.77;;;6.13;;
11245;SDS011;59870;50.106;8.580;2022-08-21T00:50:46;7.73;;;7.00;;
11245;SDS011;59870;50.106;8.580;2022-08-21T00:53:19;6.93;;;6.40;;
11245;SDS011;59870;50.106;8.580;2022-08-21T00:55:46;7.37;;;6.27;;
11245;SDS011;59870;50.106;8.580;2022-08-21T00:58:15;9.23;;;6.93;;
11245;SDS011;59870;50.106;8.580;2022-08-21T01:00:45;6.77;;;6.27;;
11245;SDS011;59870;50.106;8.580;2022-08-21T01:03:16;6.47;;;5.87;;
11245;SDS011;59870;50.106;8.580;2022-08-21T01:05:50;6.37;;;5.77;;
11245;SDS011;59870;50.106;8.580;2022-08-21T01:08:18;7.50;;;6.13;;
11245;SDS011;59870;50.106;8.580;2022-08-21T01:10:47;6.40;;;5.90;;
11245;SDS011;59870;50.106;8.580;2022-08-21T01:13:25;6.10;;;5.60;;
11245;SDS011;59870;50.106;8.580;2022-08-21T01:15:55;6.57;;;5.90;;
11245;SDS011;59870;50.106;8.580;2022-08-21T01:18:26;6.83;;;5.77;;
11245;SDS011;59870;50.106;8.580;2022-08-21T01:23:41;6.93;;;6.03;;
11245;SDS011;59870;50.106;8.580;2022-08-21T01:26:11;6.07;;;5.57;;
11245;SDS011;59870;50.106;8.580;2022-08-21T01:28:42;6.57;;;6.07;;
11245;SDS011;59870;50.106;8.580;2022-08-21T01:31:13;7.47;;;6.40;;
11245;SDS011;59870;50.106;8.580;2022-08-21T01:33:50;7.10;;;6.40;;
11245;SDS011;59870;50.106;8.580;2022-08-21T01:36:18;7.03;;;6.33;;
11245;SDS011;59870;50.106;8.580;2022-08-21T01:38:45;6.07;;;5.47;;
11245;SDS011;59870;50.106;8.580;2022-08-21T01:41:14;6.20;;;5.60;;
11245;SDS011;59870;50.106;8.580;2022-08-21T01:43:43;10.57;;;7.00;;
11245;SDS011;59870;50.106;8.580;2022-08-21T01:46:11;6.67;;;6.13;;
11245;SDS011;59870;50.106;8.580;2022-08-21T01:48:39;7.57;;;6.60;;
11245;SDS011;59870;50.106;8.580;2022-08-21T01:51:07;6.97;;;6.27;;
11245;SDS011;59870;50.106;8.580;2022-08-21T01:53:35;8.03;;;6.30;;
11245;SDS011;59870;50.106;8.580;2022-08-21T01:56:04;6.47;;;5.87;;
11245;SDS011;59870;50.106;8.580;2022-08-21T01:58:43;6.87;;;6.27;;
11245;SDS011;59870;50.106;8.580;2022-08-21T02:01:12;7.57;;;6.87;;
11245;SDS011;59870;50.106;8.580;2022-08-21T02:03:39;6.63;;;6.03;;
11245;SDS011;59870;50.106;8.580;2022-08-21T02:06:11;6.83;;;5.80;;
11245;SDS011;59870;50.106;8.580;2022-08-21T02:08:41;6.50;;;5.90;;
11245;SDS011;59870;50.106;8.580;2022-08-21T02:11:09;6.67;;;6.10;;
11245;SDS011;59870;50.106;8.580;2022-08-21T02:13:36;6.40;;;5.97;;
11245;SDS011;59870;50.106;8.580;2022-08-21T02:16:04;6.60;;;5.90;;
11245;SDS011;59870;50.106;8.580;2022-08-21T02:18:31;6.70;;;6.17;;
11245;SDS011;59870;50.106;8.580;2022-08-21T02:20:59;7.10;;;5.97;;
11245;SDS011;59870;50.106;8.580;2022-08-21T02:23:26;6.90;;;6.30;;
11245;SDS011;59870;50.106;8.580;2022-08-21T02:25:55;7.90;;;5.90;;
11245;SDS011;59870;50.106;8.580;2022-08-21T02:28:24;6.23;;;5.63;;
11245;SDS011;59870;50.106;8.580;2022-08-21T02:30:54;6.20;;;5.60;;
11245;SDS011;59870;50.106;8.580;2022-08-21T02:33:23;6.87;;;6.27;;
11245;SDS011;59870;50.106;8.580;2022-08-21T02:35:51;9.90;;;5.97;;
11245;SDS011;59870;50.106;8.580;2022-08-21T02:38:21;6.97;;;6.47;;
11245;SDS011;59870;50.106;8.580;2022-08-21T02:40:50;7.63;;;6.87;;
11245;SDS011;59870;50.106;8.580;2022-08-21T02:43:20;6.93;;;6.33;;
11245;SDS011;59870;50.106;8.580;2022-08-21T02:45:49;6.93;;;6.33;;
11245;SDS011;59870;50.106;8.580;2022-08-21T02:48:18;6.67;;;6.07;;
11245;SDS011;59870;50.106;8.580;2022-08-21T02:50:54;6.67;;;6.10;;
11245;SDS011;59870;50.106;8.580;2022-08-21T02:53:23;7.37;;;6.67;;
11245;SDS011;59870;50.106;8.580;2022-08-21T02:55:51;6.90;;;6.13;;
11245;SDS011;59870;50.106;8.580;2022-08-21T02:58:21;6.67;;;6.00;;
11245;SDS011;59870;50.106;8.580;2022-08-21T03:00:51;6.40;;;5.90;;
11245;SDS011;59870;50.106;8.580;2022-08-21T03:03:19;6.93;;;6.33;;
11245;SDS011;59870;50.106;8.580;2022-08-21T03:05:48;7.37;;;6.67;;
11245;SDS011;59870;50.106;8.580;2022-08-21T03:08:16;7.60;;;6.53;;
11245;SDS011;59870;50.106;8.580;2022-08-21T03:10:46;6.80;;;6.20;;
11245;SDS011;59870;50.106;8.580;2022-08-21T03:13:15;6.70;;;6.10;;
11245;SDS011;59870;50.106;8.580;2022-08-21T03:15:44;6.93;;;6.20;;
11245;SDS011;59870;50.106;8.580;2022-08-21T03:18:11;7.20;;;6.50;;
11245;SDS011;59870;50.106;8.580;2022-08-21T03:20:40;6.47;;;5.83;;
11245;SDS011;59870;50.106;8.580;2022-08-21T03:23:09;6.57;;;6.10;;
11245;SDS011;59870;50.106;8.580;2022-08-21T03:25:40;6.83;;;6.23;;
11245;SDS011;59870;50.106;8.580;2022-08-21T03:28:10;8.63;;;6.90;;
11245;SDS011;59870;50.106;8.580;2022-08-21T03:30:41;7.00;;;6.33;;
11245;SDS011;59870;50.106;8.580;2022-08-21T03:33:09;7.37;;;6.67;;
11245;SDS011;59870;50.106;8.580;2022-08-21T03:35:42;6.47;;;5.97;;
11245;SDS011;59870;50.106;8.580;2022-08-21T03:38:11;9.03;;;6.53;;
11245;SDS011;59870;50.106;8.580;2022-08-21T03:40:40;6.93;;;6.33;;
11245;SDS011;59870;50.106;8.580;2022-08-21T03:43:09;7.30;;;6.73;;
11245;SDS011;59870;50.106;8.580;2022-08-21T03:45:37;7.80;;;7.20;;
11245;SDS011;59870;50.106;8.580;2022-08-21T03:48:06;6.00;;;5.53;;
11245;SDS011;59870;50.106;8.580;2022-08-21T03:50:36;6.70;;;6.27;;
11245;SDS011;59870;50.106;8.580;2022-08-21T03:53:09;6.50;;;5.90;;
11245;SDS011;59870;50.106;8.580;2022-08-21T03:55:44;7.07;;;6.37;;
11245;SDS011;59870;50.106;8.580;2022-08-21T03:58:14;6.83;;;6.13;;
11245;SDS011;59870;50.106;8.580;2022-08-21T04:00:51;6.63;;;5.90;;
11245;SDS011;59870;50.106;8.580;2022-08-21T04:03:20;6.63;;;5.97;;
11245;SDS011;59870;50.106;8.580;2022-08-21T04:05:48;6.77;;;6.17;;
11245;SDS011;59870;50.106;8.580;2022-08-21T04:08:16;6.77;;;6.27;;
11245;SDS011;59870;50.106;8.580;2022-08-21T04:10:46;6.13;;;5.63;;
11245;SDS011;59870;50.106;8.580;2022-08-21T04:13:16;6.03;;;5.43;;
11245;SDS011;59870;50.106;8.580;2022-08-21T04:15:44;6.30;;;5.70;;
11245;SDS011;59870;50.106;8.580;2022-08-21T04:18:12;6.07;;;5.37;;
11245;SDS011;59870;50.106;8.580;2022-08-21T04:20:40;6.03;;;5.63;;
11245;SDS011;59870;50.106;8.580;2022-08-21T04:23:17;6.77;;;6.17;;
11245;SDS011;59870;50.106;8.580;2022-08-21T04:25:51;6.20;;;5.70;;
11245;SDS011;59870;50.106;8.580;2022-08-21T04:28:20;7.00;;;6.23;;
11245;SDS011;59870;50.106;8.580;2022-08-21T04:30:50;6.33;;;5.83;;
11245;SDS011;59870;50.106;8.580;2022-08-21T04:37:36;5.40;;;4.90;;
11245;SDS011;59870;50.106;8.580;2022-08-21T04:41:19;5.73;;;5.27;;
11245;SDS011;59870;50.106;8.580;2022-08-21T04:48:01;6.03;;;5.53;;
11245;SDS011;59870;50.106;8.580;2022-08-21T04:57:17;5.47;;;4.87;;
11245;SDS011;59870;50.106;8.580;2022-08-21T05:11:03;6.40;;;5.87;;
11245;SDS011;59870;50.106;8.580;2022-08-21T05:28:20;6.40;;;5.80;;
11245;SDS011;59870;50.106;8.580;2022-08-21T05:32:11;6.60;;;6.10;;
11245;SDS011;59870;50.106;8.580;2022-08-21T05:34:58;7.10;;;6.50;;
11245;SDS011;59870;50.106;8.580;2022-08-21T05:37:36;6.80;;;6.30;;
11245;SDS011;59870;50.106;8.580;2022-08-21T05:49:50;6.33;;;5.80;;
11245;SDS011;59870;50.106;8.580;2022-08-21T05:55:12;8.93;;;7.40;;
11245;SDS011;59870;50.106;8.580;2022-08-21T05:57:40;9.40;;;7.03;;
11245;SDS011;59870;50.106;8.580;2022-08-21T06:00:08;7.27;;;6.57;;
11245;SDS011;59870;50.106;8.580;2022-08-21T06:02:39;8.43;;;6.70;;
11245;SDS011;59870;50.106;8.580;2022-08-21T06:05:08;7.30;;;6.33;;
11245;SDS011;59870;50.106;8.580;2022-08-21T06:07:35;7.23;;;6.53;;
11245;SDS011;59870;50.106;8.580;2022-08-21T06:10:03;7.40;;;6.70;;
11245;SDS011;59870;50.106;8.580;2022-08-21T06:12:31;8.00;;;6.87;;
11245;SDS011;59870;50.106;8.580;2022-08-21T06:14:58;7.40;;;5.90;;
11245;SDS011;59870;50.106;8.580;2022-08-21T06:17:26;7.83;;;7.13;;
11245;SDS011;59870;50.106;8.580;2022-08-21T06:19:53;6.50;;;5.77;;
11245;SDS011;59870;50.106;8.580;2022-08-21T06:22:21;7.97;;;6.03;;
11245;SDS011;59870;50.106;8.580;2022-08-21T06:24:48;7.73;;;6.53;;
11245;SDS011;59870;50.106;8.580;2022-08-21T06:27:16;6.73;;;6.10;;
11245;SDS011;59870;50.106;8.580;2022-08-21T06:29:44;7.47;;;5.87;;
11245;SDS011;59870;50.106;8.580;2022-08-21T06:32:12;7.93;;;7.10;;
11245;SDS011;59870;50.106;8.580;2022-08-21T06:34:42;7.17;;;6.47;;
11245;SDS011;59870;50.106;8.580;2022-08-21T06:37:10;7.30;;;6.60;;
11245;SDS011;59870;50.106;8.580;2022-08-21T06:39:38;10.43;;;7.03;;
11245;SDS011;59870;50.106;8.580;2022-08-21T06:42:14;9.30;;;6.67;;
11245;SDS011;59870;50.106;8.580;2022-08-21T06:44:43;7.23;;;6.63;;
11245;SDS011;59870;50.106;8.580;2022-08-21T06:47:11;9.30;;;6.87;;
11245;SDS011;59870;50.106;8.580;2022-08-21T06:49:39;6.63;;;6.00;;
11245;SDS011;59870;50.106;8.580;2022-08-21T06:52:11;10.13;;;6.03;;
11245;SDS011;59870;50.106;8.580;2022-08-21T06:54:39;7.90;;;6.07;;
11245;SDS011;59870;50.106;8.580;2022-08-21T06:57:08;6.63;;;6.03;;
11245;SDS011;59870;50.106;8.580;2022-08-21T06:59:36;8.47;;;7.07;;
11245;SDS011;59870;50.106;8.580;2022-08-21T07:02:03;9.70;;;5.77;;
11245;SDS011;59870;50.106;8.580;2022-08-21T07:04:31;7.93;;;6.70;;
11245;SDS011;59870;50.106;8.580;2022-08-21T07:06:58;7.43;;;5.90;;
11245;SDS011;59870;50.106;8.580;2022-08-21T07:09:26;5.90;;;5.33;;
11245;SDS011;59870;50.106;8.580;2022-08-21T07:11:55;6.97;;;5.90;;
11245;SDS011;59870;50.106;8.580;2022-08-21T07:14:23;7.57;;;6.40;;
11245;SDS011;59870;50.106;8.580;2022-08-21T07:16:50;12.45;;;6.32;;
11245;SDS011;59870;50.106;8.580;2022-08-21T07:19:18;6.53;;;5.37;;
11245;SDS011;59870;50.106;8.580;2022-08-21T07:21:46;6.65;;;5.75;;
11245;SDS011;59870;50.106;8.580;2022-08-21T07:24:14;8.88;;;7.28;;
11245;SDS011;59870;50.106;8.580;2022-08-21T07:26:41;5.78;;;5.28;;
11245;SDS011;59870;50.106;8.580;2022-08-21T07:29:08;7.40;;;5.95;;
11245;SDS011;59870;50.106;8.580;2022-08-21T07:31:36;6.47;;;5.57;;
11245;SDS011;59870;50.106;8.580;2022-08-21T07:34:04;6.03;;;5.47;;
11245;SDS011;59870;50.106;8.580;2022-08-21T07:36:31;6.40;;;5.63;;
11245;SDS011;59870;50.106;8.580;2022-08-21T07:39:01;6.13;;;5.43;;
11245;SDS011;59870;50.106;8.580;2022-08-21T07:41:28;9.75;;;6.47;;
11245;SDS011;59870;50.106;8.580;2022-08-21T07:43:57;7.82;;;5.60;;
11245;SDS011;59870;50.106;8.580;2022-08-21T07:46:25;6.57;;;5.95;;
11245;SDS011;59870;50.106;8.580;2022-08-21T07:48:53;7.13;;;6.40;;
11245;SDS011;59870;50.106;8.580;2022-08-21T07:51:21;5.72;;;5.32;;
11245;SDS011;59870;50.106;8.580;2022-08-21T07:53:53;5.90;;;5.38;;
11245;SDS011;59870;50.106;8.580;2022-08-21T07:56:22;7.55;;;5.38;;
11245;SDS011;59870;50.106;8.580;2022-08-21T07:58:49;5.60;;;5.03;;
11245;SDS011;59870;50.106;8.580;2022-08-21T08:01:17;5.25;;;4.75;;
11245;SDS011;59870;50.106;8.580;2022-08-21T08:03:45;5.95;;;5.30;;
11245;SDS011;59870;50.106;8.580;2022-08-21T08:06:20;5.95;;;5.35;;
11245;SDS011;59870;50.106;8.580;2022-08-21T08:08:48;9.05;;;6.47;;
11245;SDS011;59870;50.106;8.580;2022-08-21T08:11:57;12.20;;;5.55;;
11245;SDS011;59870;50.106;8.580;2022-08-21T08:14:24;5.47;;;4.97;;
11245;SDS011;59870;50.106;8.580;2022-08-21T08:17:00;6.13;;;5.20;;
11245;SDS011;59870;50.106;8.580;2022-08-21T08:19:29;7.53;;;5.95;;
11245;SDS011;59870;50.106;8.580;2022-08-21T08:21:57;5.60;;;5.10;;
11245;SDS011;59870;50.106;8.580;2022-08-21T08:24:25;7.05;;;5.38;;
11245;SDS011;59870;50.106;8.580;2022-08-21T08:26:52;5.93;;;5.35;;
11245;SDS011;59870;50.106;8.580;2022-08-21T08:29:24;9.10;;;5.50;;
11245;SDS011;59870;50.106;8.580;2022-08-21T08:31:53;7.15;;;5.20;;
11245;SDS011;59870;50.106;8.580;2022-08-21T08:34:21;5.88;;;5.18;;
11245;SDS011;59870;50.106;8.580;2022-08-21T08:36:51;5.25;;;4.85;;
11245;SDS011;59870;50.106;8.580;2022-08-21T08:39:19;5.57;;;5.07;;
11245;SDS011;59870;50.106;8.580;2022-08-21T08:53:07;5.68;;;5.07;;
11245;SDS011;59870;50.106;8.580;2022-08-21T08:56:15;6.40;;;5.80;;
11245;SDS011;59870;50.106;8.580;2022-08-21T08:59:37;5.38;;;4.97;;
11245;SDS011;59870;50.106;8.580;2022-08-21T09:03:05;6.18;;;5.57;;
11245;SDS011;59870;50.106;8.580;2022-08-21T09:06:31;7.43;;;4.40;;
11245;SDS011;59870;50.106;8.580;2022-08-21T09:14:57;6.43;;;3.75;;
11245;SDS011;59870;50.106;8.580;2022-08-21T09:17:38;5.63;;;4.03;;
11245;SDS011;59870;50.106;8.580;2022-08-21T09:23:11;3.70;;;3.33;;
11245;SDS011;59870;50.106;8.580;2022-08-21T09:26:13;3.83;;;3.42;;
11245;SDS011;59870;50.106;8.580;2022-08-21T09:28:43;3.80;;;3.50;;
11245;SDS011;59870;50.106;8.580;2022-08-21T09:31:21;5.75;;;3.83;;
11245;SDS011;59870;50.106;8.580;2022-08-21T09:34:03;4.28;;;3.50;;
11245;SDS011;59870;50.106;8.580;2022-08-21T09:39:22;4.50;;;3.58;;
11245;SDS011;59870;50.106;8.580;2022-08-21T09:41:59;6.20;;;3.88;;
11245;SDS011;59870;50.106;8.580;2022-08-21T09:44:34;5.80;;;3.78;;
11245;SDS011;59870;50.106;8.580;2022-08-21T09:47:10;5.47;;;3.80;;
11245;SDS011;59870;50.106;8.580;2022-08-21T09:49:42;4.90;;;4.05;;
11245;SDS011;59870;50.106;8.580;2022-08-21T09:52:19;5.55;;;4.05;;
11245;SDS011;59870;50.106;8.580;2022-08-21T09:55:17;4.55;;;4.05;;
11245;SDS011;59870;50.106;8.580;2022-08-21T09:58:10;4.95;;;4.40;;
11245;SDS011;59870;50.106;8.580;2022-08-21T10:00:37;4.43;;;3.65;;
11245;SDS011;59870;50.106;8.580;2022-08-21T10:03:12;5.50;;;3.80;;
11245;SDS011;59870;50.106;8.580;2022-08-21T10:05:54;5.30;;;4.03;;
11245;SDS011;59870;50.106;8.580;2022-08-21T10:08:28;7.20;;;3.85;;
11245;SDS011;59870;50.106;8.580;2022-08-21T10:10:57;8.23;;;5.03;;
11245;SDS011;59870;50.106;8.580;2022-08-21T10:19:07;6.13;;;3.65;;
11245;SDS011;59870;50.106;8.580;2022-08-21T10:30:04;4.28;;;3.88;;
11245;SDS011;59870;50.106;8.580;2022-08-21T10:38:35;5.68;;;4.15;;
11245;SDS011;59870;50.106;8.580;2022-08-21T10:49:38;6.55;;;4.07;;
11245;SDS011;59870;50.106;8.580;2022-08-21T10:52:29;5.47;;;3.75;;
11245;SDS011;59870;50.106;8.580;2022-08-21T10:58:02;5.13;;;3.85;;
11245;SDS011;59870;50.106;8.580;2022-08-21T11:03:42;5.60;;;3.80;;
11245;SDS011;59870;50.106;8.580;2022-08-21T11:06:29;5.35;;;3.83;;
11245;SDS011;59870;50.106;8.580;2022-08-21T11:09:04;3.88;;;3.53;;
11245;SDS011;59870;50.106;8.580;2022-08-21T11:11:41;4.95;;;3.80;;
11245;SDS011;59870;50.106;8.580;2022-08-21T11:14:39;4.35;;;3.60;;
11245;SDS011;59870;50.106;8.580;2022-08-21T11:17:53;4.60;;;3.70;;
11245;SDS011;59870;50.106;8.580;2022-08-21T11:20:30;4.65;;;3.75;;
11245;SDS011;59870;50.106;8.580;2022-08-21T11:23:03;5.80;;;3.38;;
11245;SDS011;59870;50.106;8.580;2022-08-21T11:25:44;4.20;;;3.50;;
11245;SDS011;59870;50.106;8.580;2022-08-21T11:28:30;6.68;;;3.92;;
11245;SDS011;59870;50.106;8.580;2022-08-21T11:31:22;5.75;;;4.22;;
11245;SDS011;59870;50.106;8.580;2022-08-21T11:36:58;4.18;;;3.78;;
11245;SDS011;59870;50.106;8.580;2022-08-21T11:50:34;3.88;;;3.13;;
11245;SDS011;59870;50.106;8.580;2022-08-21T11:55:53;4.63;;;3.30;;
11245;SDS011;59870;50.106;8.580;2022-08-21T11:58:35;4.13;;;3.60;;
11245;SDS011;59870;50.106;8.580;2022-08-21T12:01:17;7.95;;;4.28;;
11245;SDS011;59870;50.106;8.580;2022-08-21T12:03:53;5.05;;;3.55;;
11245;SDS011;59870;50.106;8.580;2022-08-21T12:06:29;8.90;;;3.53;;
11245;SDS011;59870;50.106;8.580;2022-08-21T12:09:04;4.93;;;3.77;;
11245;SDS011;59870;50.106;8.580;2022-08-21T12:11:47;3.95;;;3.38;;
11245;SDS011;59870;50.106;8.580;2022-08-21T12:14:19;6.43;;;3.67;;
11245;SDS011;59870;50.106;8.580;2022-08-21T12:16:47;5.10;;;3.87;;
11245;SDS011;59870;50.106;8.580;2022-08-21T12:21:50;7.38;;;4.03;;
11245;SDS011;59870;50.106;8.580;2022-08-21T12:29:58;8.60;;;3.97;;
11245;SDS011;59870;50.106;8.580;2022-08-21T12:32:29;4.35;;;3.95;;
11245;SDS011;59870;50.106;8.580;2022-08-21T12:35:13;4.43;;;3.47;;
11245;SDS011;59870;50.106;8.580;2022-08-21T12:40:39;5.78;;;3.38;;
11245;SDS011;59870;50.106;8.580;2022-08-21T12:43:20;5.38;;;3.40;;
11245;SDS011;59870;50.106;8.580;2022-08-21T12:45:52;3.85;;;3.47;;
11245;SDS011;59870;50.106;8.580;2022-08-21T12:48:22;5.13;;;3.15;;
11245;SDS011;59870;50.106;8.580;2022-08-21T12:50:58;6.03;;;3.88;;
11245;SDS011;59870;50.106;8.580;2022-08-21T12:53:51;3.63;;;3.33;;
11245;SDS011;59870;50.106;8.580;2022-08-21T12:56:23;6.50;;;3.53;;
11245;SDS011;59870;50.106;8.580;2022-08-21T12:58:56;3.47;;;2.92;;
11245;SDS011;59870;50.106;8.580;2022-08-21T13:01:36;4.38;;;3.58;;
11245;SDS011;59870;50.106;8.580;2022-08-21T13:04:11;3.80;;;3.40;;
11245;SDS011;59870;50.106;8.580;2022-08-21T13:06:45;5.05;;;3.28;;
11245;SDS011;59870;50.106;8.580;2022-08-21T13:09:16;3.42;;;3.08;;
11245;SDS011;59870;50.106;8.580;2022-08-21T13:11:47;4.27;;;2.97;;
11245;SDS011;59870;50.106;8.580;2022-08-21T13:14:35;6.15;;;3.20;;
11245;SDS011;59870;50.106;8.580;2022-08-21T13:17:12;5.68;;;3.38;;
11245;SDS011;59870;50.106;8.580;2022-08-21T13:19:53;5.22;;;3.05;;
11245;SDS011;59870;50.106;8.580;2022-08-21T13:22:29;4.22;;;3.00;;
11245;SDS011;59870;50.106;8.580;2022-08-21T13:25:01;3.72;;;3.20;;
11245;SDS011;59870;50.106;8.580;2022-08-21T13:27:33;6.07;;;3.50;;
11245;SDS011;59870;50.106;8.580;2022-08-21T13:30:06;4.03;;;3.05;;
11245;SDS011;59870;50.106;8.580;2022-08-21T13:32:41;2.60;;;2.37;;
11245;SDS011;59870;50.106;8.580;2022-08-21T13:35:12;4.45;;;3.10;;
11245;SDS011;59870;50.106;8.580;2022-08-21T13:37:46;3.70;;;3.00;;
11245;SDS011;59870;50.106;8.580;2022-08-21T13:40:17;3.33;;;3.00;;
11245;SDS011;59870;50.106;8.580;2022-08-21T13:42:50;4.15;;;3.25;;
11245;SDS011;59870;50.106;8.580;2022-08-21T13:45:23;2.83;;;2.53;;
11245;SDS011;59870;50.106;8.580;2022-08-21T13:47:52;4.65;;;3.50;;
11245;SDS011;59870;50.106;8.580;2022-08-21T13:50:22;5.47;;;3.45;;
11245;SDS011;59870;50.106;8.580;2022-08-21T13:52:55;6.30;;;3.57;;
11245;SDS011;59870;50.106;8.580;2022-08-21T13:55:35;3.15;;;2.85;;
11245;SDS011;59870;50.106;8.580;2022-08-21T13:58:05;2.63;;;2.40;;
11245;SDS011;59870;50.106;8.580;2022-08-21T14:00:35;4.55;;;3.00;;
11245;SDS011;59870;50.106;8.580;2022-08-21T14:03:12;3.75;;;3.10;;
11245;SDS011;59870;50.106;8.580;2022-08-21T14:05:52;5.43;;;3.22;;
11245;SDS011;59870;50.106;8.580;2022-08-21T14:08:23;8.57;;;2.57;;
11245;SDS011;59870;50.106;8.580;2022-08-21T14:10:56;3.60;;;2.63;;
11245;SDS011;59870;50.106;8.580;2022-08-21T14:13:29;3.90;;;3.50;;
11245;SDS011;59870;50.106;8.580;2022-08-21T14:18:51;3.13;;;2.70;;
11245;SDS011;59870;50.106;8.580;2022-08-21T14:21:26;3.15;;;2.78;;
11245;SDS011;59870;50.106;8.580;2022-08-21T14:24:09;3.15;;;2.85;;
11245;SDS011;59870;50.106;8.580;2022-08-21T14:26:50;2.78;;;2.33;;
11245;SDS011;59870;50.106;8.580;2022-08-21T14:29:26;4.72;;;2.83;;
11245;SDS011;59870;50.106;8.580;2022-08-21T14:32:00;4.50;;;2.90;;
11245;SDS011;59870;50.106;8.580;2022-08-21T14:34:58;3.35;;;3.05;;
11245;SDS011;59870;50.106;8.580;2022-08-21T14:37:26;4.60;;;2.77;;
11245;SDS011;59870;50.106;8.580;2022-08-21T14:39:53;2.65;;;2.35;;
11245;SDS011;59870;50.106;8.580;2022-08-21T14:42:20;3.88;;;2.95;;
11245;SDS011;59870;50.106;8.580;2022-08-21T14:44:48;11.13;;;5.63;;
11245;SDS011;59870;50.106;8.580;2022-08-21T14:47:16;5.07;;;3.42;;
11245;SDS011;59870;50.106;8.580;2022-08-21T14:49:43;2.75;;;2.30;;
11245;SDS011;59870;50.106;8.580;2022-08-21T14:52:10;3.03;;;2.20;;
11245;SDS011;59870;50.106;8.580;2022-08-21T14:54:38;2.90;;;2.58;;
11245;SDS011;59870;50.106;8.580;2022-08-21T14:57:07;4.30;;;2.65;;
11245;SDS011;59870;50.106;8.580;2022-08-21T14:59:36;4.72;;;2.72;;
11245;SDS011;59870;50.106;8.580;2022-08-21T15:02:05;2.83;;;2.60;;
11245;SDS011;59870;50.106;8.580;2022-08-21T15:04:33;3.03;;;2.70;;
11245;SDS011;59870;50.106;8.580;2022-08-21T15:07:06;2.90;;;2.28;;
11245;SDS011;59870;50.106;8.580;2022-08-21T15:09:33;3.22;;;2.92;;
11245;SDS011;59870;50.106;8.580;2022-08-21T15:12:01;3.05;;;2.70;;
11245;SDS011;59870;50.106;8.580;2022-08-21T15:14:30;5.55;;;3.20;;
11245;SDS011;59870;50.106;8.580;2022-08-21T15:17:00;3.67;;;2.55;;
11245;SDS011;59870;50.106;8.580;2022-08-21T15:19:30;3.92;;;2.50;;
11245;SDS011;59870;50.106;8.580;2022-08-21T15:21:57;2.23;;;2.03;;
11245;SDS011;59870;50.106;8.580;2022-08-21T15:24:25;3.27;;;2.40;;
11245;SDS011;59870;50.106;8.580;2022-08-21T15:26:53;2.58;;;2.38;;
11245;SDS011;59870;50.106;8.580;2022-08-21T15:29:22;2.40;;;2.20;;
11245;SDS011;59870;50.106;8.580;2022-08-21T15:34:23;3.20;;;2.55;;
11245;SDS011;59870;50.106;8.580;2022-08-21T15:36:57;3.08;;;2.55;;
11245;SDS011;59870;50.106;8.580;2022-08-21T15:39:25;4.63;;;2.35;;
11245;SDS011;59870;50.106;8.580;2022-08-21T15:41:58;4.30;;;2.33;;
11245;SDS011;59870;50.106;8.580;2022-08-21T15:44:33;2.60;;;2.10;;
11245;SDS011;59870;50.106;8.580;2022-08-21T15:47:01;2.83;;;2.40;;
11245;SDS011;59870;50.106;8.580;2022-08-21T15:49:29;3.25;;;2.65;;
11245;SDS011;59870;50.106;8.580;2022-08-21T15:51:57;6.45;;;2.80;;
11245;SDS011;59870;50.106;8.580;2022-08-21T15:54:24;3.17;;;2.17;;
11245;SDS011;59870;50.106;8.580;2022-08-21T15:56:52;3.70;;;1.88;;
11245;SDS011;59870;50.106;8.580;2022-08-21T15:59:20;2.70;;;2.50;;
11245;SDS011;59870;50.106;8.580;2022-08-21T16:01:49;3.63;;;1.77;;
11245;SDS011;59870;50.106;8.580;2022-08-21T16:04:22;2.40;;;2.17;;
11245;SDS011;59870;50.106;8.580;2022-08-21T16:06:53;3.20;;;2.30;;
11245;SDS011;59870;50.106;8.580;2022-08-21T16:09:29;2.55;;;2.33;;
11245;SDS011;59870;50.106;8.580;2022-08-21T16:11:58;3.17;;;2.50;;
11245;SDS011;59870;50.106;8.580;2022-08-21T16:14:28;3.33;;;2.40;;
11245;SDS011;59870;50.106;8.580;2022-08-21T16:16:56;7.17;;;2.50;;
11245;SDS011;59870;50.106;8.580;2022-08-21T16:19:25;3.17;;;2.17;;
11245;SDS011;59870;50.106;8.580;2022-08-21T16:21:54;5.88;;;2.17;;
11245;SDS011;59870;50.106;8.580;2022-08-21T16:24:22;2.05;;;1.90;;
11245;SDS011;59870;50.106;8.580;2022-08-21T16:26:49;2.30;;;1.90;;
11245;SDS011;59870;50.106;8.580;2022-08-21T16:29:25;2.63;;;2.10;;
11245;SDS011;59870;50.106;8.580;2022-08-21T16:32:03;3.35;;;2.33;;
11245;SDS011;59870;50.106;8.580;2022-08-21T16:34:31;1.95;;;1.75;;
11245;SDS011;59870;50.106;8.580;2022-08-21T16:36:59;2.05;;;1.95;;
11245;SDS011;59870;50.106;8.580;2022-08-21T16:39:27;5.73;;;2.47;;
11245;SDS011;59870;50.106;8.580;2022-08-21T16:41:54;4.07;;;2.08;;
11245;SDS011;59870;50.106;8.580;2022-08-21T16:44:22;2.40;;;2.20;;
11245;SDS011;59870;50.106;8.580;2022-08-21T16:46:49;4.75;;;2.00;;
11245;SDS011;59870;50.106;8.580;2022-08-21T16:49:17;2.50;;;2.30;;
11245;SDS011;59870;50.106;8.580;2022-08-21T16:51:44;2.17;;;1.98;;
11245;SDS011;59870;50.106;8.580;2022-08-21T16:54:12;6.13;;;2.38;;
11245;SDS011;59870;50.106;8.580;2022-08-21T16:56:39;2.67;;;2.20;;
11245;SDS011;59870;50.106;8.580;2022-08-21T16:59:13;3.70;;;2.00;;
11245;SDS011;59870;50.106;8.580;2022-08-21T17:01:43;2.88;;;2.00;;
11245;SDS011;59870;50.106;8.580;2022-08-21T17:04:11;2.10;;;1.90;;
11245;SDS011;59870;50.106;8.580;2022-08-21T17:06:39;2.85;;;2.58;;
11245;SDS011;59870;50.106;8.580;2022-08-21T17:09:07;2.85;;;2.15;;
11245;SDS011;59870;50.106;8.580;2022-08-21T17:11:36;2.13;;;1.92;;
11245;SDS011;59870;50.106;8.580;2022-08-21T17:14:07;2.80;;;2.33;;
11245;SDS011;59870;50.106;8.580;2022-08-21T17:16:37;4.78;;;2.50;;
11245;SDS011;59870;50.106;8.580;2022-08-21T17:19:06;2.47;;;2.07;;
11245;SDS011;59870;50.106;8.580;2022-08-21T17:21:34;2.50;;;2.30;;
11245;SDS011;59870;50.106;8.580;2022-08-21T17:24:02;2.53;;;2.25;;
11245;SDS011;59870;50.106;8.580;2022-08-21T17:26:29;2.38;;;2.17;;
11245;SDS011;59870;50.106;8.580;2022-08-21T17:28:58;2.90;;;2.35;;
11245;SDS011;59870;50.106;8.580;2022-08-21T17:31:26;4.47;;;2.30;;
11245;SDS011;59870;50.106;8.580;2022-08-21T17:33:54;2.07;;;1.80;;
11245;SDS011;59870;50.106;8.580;2022-08-21T17:36:24;3.17;;;2.40;;
11245;SDS011;59870;50.106;8.580;2022-08-21T17:38:55;5.75;;;2.75;;
11245;SDS011;59870;50.106;8.580;2022-08-21T17:41:23;2.80;;;2.60;;
11245;SDS011;59870;50.106;8.580;2022-08-21T17:43:53;2.90;;;2.63;;
11245;SDS011;59870;50.106;8.580;2022-08-21T17:46:24;2.87;;;2.57;;